createdAt,value
2023-04-01T00:00:39.697Z,95493.13
2023-04-01T00:04:40.182Z,95496.34
2023-04-01T00:08:43.630Z,95499.94
2023-04-01T00:12:45.056Z,95490.97
2023-04-01T00:16:45.734Z,95457.06
2023-04-01T00:20:49.505Z,95487.34
2023-04-01T00:24:52.562Z,95480.34
2023-04-01T00:28:53.842Z,95484.91
2023-04-01T00:32:57.316Z,95481.78
2023-04-01T00:36:58.219Z,95486.78
2023-04-01T00:41:02.344Z,95483.06
2023-04-01T00:45:22.788Z,95483.09
2023-04-01T00:49:29.492Z,95467.22
2023-04-01T00:53:32.234Z,95473.91
2023-04-01T00:57:41.705Z,95473.06
2023-04-01T01:01:43.313Z,95471.50
2023-04-01T01:06:23.015Z,95463.75
2023-04-01T01:10:30.752Z,95467.44
2023-04-01T01:14:49.517Z,95464.56
2023-04-01T01:19:00.994Z,95466.22
2023-04-01T01:23:55.589Z,95457.75
2023-04-01T01:28:15.734Z,95446.56
2023-04-01T01:32:38.076Z,95459.03
2023-04-01T01:36:46.389Z,95441.44
2023-04-01T01:40:53.047Z,95447.25
2023-04-01T01:44:57.691Z,95448.00
2023-04-01T01:48:59.502Z,95449.28
2023-04-01T01:53:16.212Z,95453.66
2023-04-01T01:57:18.757Z,95454.19
2023-04-01T02:01:27.854Z,95451.47
2023-04-01T02:05:34.687Z,95464.09
2023-04-01T02:09:44.902Z,95451.25
2023-04-01T02:13:55.872Z,95451.19
2023-04-01T02:17:58.287Z,95455.19
2023-04-01T02:22:05.743Z,95453.63
2023-04-01T02:26:14.009Z,95469.88
2023-04-01T02:30:18.604Z,95473.88
2023-04-01T02:34:19.983Z,95474.44
2023-04-01T02:38:20.689Z,95469.78
2023-04-01T02:42:23.969Z,95474.41
2023-04-01T02:46:24.455Z,95473.38
2023-04-01T02:50:25.008Z,95475.34
2023-04-01T02:54:25.539Z,95479.13
2023-04-01T02:58:28.778Z,95481.41
2023-04-01T03:02:29.746Z,95483.09
2023-04-01T03:06:30.708Z,95489.19
2023-04-01T03:10:31.225Z,95477.97
2023-04-01T03:14:34.352Z,95477.34
2023-04-01T03:18:34.773Z,95487.81
2023-04-01T03:22:35.465Z,95477.34
2023-04-01T03:26:36.040Z,95486.22
2023-04-01T03:30:39.672Z,95492.81
2023-04-01T03:34:40.417Z,95495.75
2023-04-01T03:38:41.114Z,95489.88
2023-04-01T03:42:41.883Z,95498.59
2023-04-01T03:46:45.681Z,95501.38
2023-04-01T03:50:46.395Z,95489.00
2023-04-01T03:54:47.117Z,95512.16
2023-04-01T03:58:47.778Z,95503.88
2023-04-01T04:02:51.619Z,95501.50
2023-04-01T04:06:58.577Z,95499.88
2023-04-01T04:11:00.706Z,95503.13
2023-04-01T04:15:01.604Z,95510.50
2023-04-01T04:19:04.924Z,95502.66
2023-04-01T04:23:05.478Z,95497.22
2023-04-01T04:27:06.686Z,95507.81
2023-04-01T04:31:09.873Z,95509.88
2023-04-01T04:35:13.956Z,95510.00
2023-04-01T04:39:15.083Z,95513.50
2023-04-01T04:43:19.824Z,95507.91
2023-04-01T04:47:20.700Z,95496.41
2023-04-01T04:51:24.818Z,95523.31
2023-04-01T04:55:26.197Z,95521.03
2023-04-01T04:59:47.349Z,95512.53
2023-04-01T05:03:53.984Z,95523.28
2023-04-01T05:07:57.549Z,95523.25
2023-04-01T05:11:58.944Z,95518.34
2023-04-01T05:16:01.393Z,95519.06
2023-04-01T05:20:02.105Z,95510.91
2023-04-01T05:24:06.251Z,95529.97
2023-04-01T05:28:07.197Z,95531.56
2023-04-01T05:32:08.037Z,95521.91
2023-04-01T05:36:15.118Z,95515.63
2023-04-01T05:40:19.240Z,95527.84
2023-04-01T05:44:20.673Z,95528.56
2023-04-01T05:48:41.707Z,95534.88
2023-04-01T05:52:43.486Z,95529.81
2023-04-01T05:56:48.232Z,95542.28
2023-04-01T06:00:59.049Z,95550.56
2023-04-01T06:05:18.827Z,95552.94
2023-04-01T06:09:24.825Z,95540.00
2023-04-01T06:14:01.878Z,95547.59
2023-04-01T06:18:47.984Z,95551.28
2023-04-01T06:23:21.687Z,95546.75
2023-04-01T06:27:44.075Z,95550.09
2023-04-01T06:32:49.430Z,95560.44
2023-04-01T06:37:27.491Z,95547.88
2023-04-01T06:42:01.715Z,95551.03
2023-04-01T06:46:16.217Z,95565.00
2023-04-01T06:51:00.137Z,95561.22
2023-04-01T06:55:41.791Z,95564.97
2023-04-01T07:00:23.775Z,95558.63
2023-04-01T07:04:32.620Z,95567.59
2023-04-01T07:08:41.724Z,95565.50
2023-04-01T07:12:51.103Z,95562.16
2023-04-01T07:17:09.548Z,95552.28
2023-04-01T07:21:27.523Z,95548.56
2023-04-01T07:25:39.674Z,95560.75
2023-04-01T07:30:20.746Z,95543.00
2023-04-01T07:34:29.144Z,95554.69
2023-04-01T07:38:46.623Z,95553.91
2023-04-01T07:43:22.562Z,95556.06
2023-04-01T07:48:11.887Z,95557.31
2023-04-01T07:52:23.364Z,95561.16
2023-04-01T07:56:42.910Z,95553.31
2023-04-01T08:01:00.595Z,95552.66
2023-04-01T08:05:23.526Z,95554.75
2023-04-01T08:09:34.903Z,95558.38
2023-04-01T08:14:13.733Z,95548.59
2023-04-01T08:18:50.397Z,95545.03
2023-04-01T08:22:57.272Z,95558.72
2023-04-01T08:27:15.111Z,95555.91
2023-04-01T08:31:23.902Z,95546.63
2023-04-01T08:35:37.689Z,95546.03
2023-04-01T08:39:51.012Z,95563.91
2023-04-01T08:44:38.781Z,95545.31
2023-04-01T08:49:12.205Z,95537.28
2023-04-01T08:53:35.857Z,95541.13
2023-04-01T08:57:57.097Z,95547.25
2023-04-01T09:03:11.853Z,95539.78
2023-04-01T09:07:33.916Z,95535.06
2023-04-01T09:12:10.556Z,95537.66
2023-04-01T09:16:48.124Z,95551.59
2023-04-01T09:21:24.895Z,95544.16
2023-04-01T09:25:55.297Z,95542.09
2023-04-01T09:30:44.778Z,95553.59
2023-04-01T09:34:58.866Z,95542.91
2023-04-01T09:39:27.774Z,95563.63
2023-04-01T09:43:50.199Z,95551.41
2023-04-01T09:48:24.032Z,95543.06
2023-04-01T09:52:39.273Z,95547.13
2023-04-01T09:57:39.191Z,95561.19
2023-04-01T10:02:31.454Z,95551.19
2023-04-01T10:07:31.955Z,95551.97
2023-04-01T10:12:21.479Z,95570.00
2023-04-01T10:16:52.850Z,95550.97
2023-04-01T10:21:26.849Z,95555.59
2023-04-01T10:26:28.071Z,95541.09
2023-04-01T10:31:38.540Z,95558.53
2023-04-01T10:36:42.320Z,95568.28
2023-04-01T10:41:43.206Z,95551.25
2023-04-01T10:46:52.518Z,95548.41
2023-04-01T10:51:21.987Z,95540.59
2023-04-01T10:55:58.143Z,95558.63
2023-04-01T11:01:09.859Z,95552.59
2023-04-01T11:06:28.858Z,95562.94
2023-04-01T11:11:28.212Z,95554.41
2023-04-01T11:16:05.443Z,95549.47
2023-04-01T11:20:45.388Z,95574.19
2023-04-01T11:25:39.122Z,95555.22
2023-04-01T11:30:27.480Z,95558.19
2023-04-01T11:35:17.085Z,95553.53
2023-04-01T11:39:31.473Z,95549.03
2023-04-01T11:44:20.605Z,95545.66
2023-04-01T11:49:08.091Z,95570.97
2023-04-01T11:53:45.861Z,95539.16
2023-04-01T11:58:28.584Z,95562.03
2023-04-01T12:02:47.995Z,95569.38
2023-04-01T12:07:06.730Z,95560.56
2023-04-01T12:11:21.621Z,95565.75
2023-04-01T12:15:38.393Z,95566.47
2023-04-01T12:19:51.291Z,95572.03
2023-04-01T12:24:38.103Z,95570.00
2023-04-01T12:28:53.000Z,95568.72
2023-04-01T12:33:14.543Z,95574.25
2023-04-01T12:37:24.537Z,95573.63
2023-04-01T12:41:39.546Z,95574.47
2023-04-01T12:45:49.422Z,95578.31
2023-04-01T12:50:20.440Z,95585.25
2023-04-01T12:54:52.606Z,95596.75
2023-04-01T12:59:39.500Z,95579.38
2023-04-01T13:04:05.718Z,95587.94
2023-04-01T13:08:33.461Z,95575.94
2023-04-01T13:13:02.330Z,95586.53
2023-04-01T13:17:14.599Z,95582.25
2023-04-01T13:21:29.930Z,95578.63
2023-04-01T13:25:43.404Z,95580.19
2023-04-01T13:29:49.984Z,95589.03
2023-04-01T13:34:04.304Z,95580.53
2023-04-01T13:39:06.497Z,95602.13
2023-04-01T13:43:19.144Z,95590.75
2023-04-01T13:48:07.295Z,95588.56
2023-04-01T13:52:37.910Z,95595.72
2023-04-01T13:57:01.694Z,95592.78
2023-04-01T14:01:14.723Z,95585.06
2023-04-01T14:05:47.650Z,95595.44
2023-04-01T14:10:04.203Z,95596.44
2023-04-01T14:14:25.229Z,95598.72
2023-04-01T14:18:46.104Z,95609.09
2023-04-01T14:23:10.828Z,95604.38
2023-04-01T14:27:45.325Z,95604.47
2023-04-01T14:32:04.646Z,95594.34
2023-04-01T14:36:46.735Z,95605.25
2023-04-01T14:41:06.417Z,95601.94
2023-04-01T14:45:43.679Z,95606.16
2023-04-01T14:49:51.854Z,95599.63
2023-04-01T14:54:08.865Z,95602.53
2023-04-01T14:58:15.831Z,95606.97
2023-04-01T15:02:41.353Z,95610.91
2023-04-01T15:07:14.825Z,95602.97
2023-04-01T15:11:39.346Z,95608.41
2023-04-01T15:16:03.782Z,95609.16
2023-04-01T15:20:27.693Z,95613.63
2023-04-01T15:24:50.029Z,95621.09
2023-04-01T15:29:10.715Z,95596.50
2023-04-01T15:33:42.270Z,95624.78
2023-04-01T15:37:59.283Z,95630.91
2023-04-01T15:42:31.011Z,95634.25
2023-04-01T15:46:48.961Z,95645.75
2023-04-01T15:51:06.596Z,95647.56
2023-04-01T15:55:29.979Z,95642.44
2023-04-01T16:00:06.342Z,95647.78
2023-04-01T16:04:52.095Z,95650.66
2023-04-01T16:09:28.467Z,95651.63
2023-04-01T16:13:56.883Z,95653.44
2023-04-01T16:18:30.672Z,95648.78
2023-04-01T16:22:39.240Z,95661.06
2023-04-01T16:26:47.008Z,95655.78
2023-04-01T16:30:59.201Z,95662.44
2023-04-01T16:35:28.485Z,95658.88
2023-04-01T16:39:42.432Z,95670.03
2023-04-01T16:43:49.130Z,95670.25
2023-04-01T16:47:56.231Z,95677.19
2023-04-01T16:52:18.237Z,95679.53
2023-04-01T16:56:26.691Z,95687.97
2023-04-01T17:00:32.229Z,95688.03
2023-04-01T17:04:42.123Z,95687.38
2023-04-01T17:09:06.078Z,95688.13
2023-04-01T17:13:45.194Z,95694.91
2023-04-01T17:18:03.532Z,95711.22
2023-04-01T17:22:21.650Z,95711.25
2023-04-01T17:26:39.957Z,95713.06
2023-04-01T17:30:50.155Z,95687.22
2023-04-01T17:35:08.859Z,95724.25
2023-04-01T17:39:31.080Z,95722.53
2023-04-01T17:43:52.409Z,95739.66
2023-04-01T17:48:07.390Z,95739.19
2023-04-01T17:52:21.086Z,95726.81
2023-04-01T17:56:42.550Z,95745.50
2023-04-01T18:01:38.531Z,95737.19
2023-04-01T18:05:56.392Z,95749.69
2023-04-01T18:10:19.279Z,95744.72
2023-04-01T18:15:03.357Z,95751.56
2023-04-01T18:19:21.293Z,95753.38
2023-04-01T18:23:36.276Z,95767.19
2023-04-01T18:27:44.738Z,95748.53
2023-04-01T18:31:51.871Z,95757.13
2023-04-01T18:36:07.228Z,95778.88
2023-04-01T18:40:25.453Z,95779.03
2023-04-01T18:44:47.397Z,95786.03
2023-04-01T18:49:02.153Z,95795.28
2023-04-01T18:53:22.450Z,95792.78
2023-04-01T18:57:24.897Z,95801.44
2023-04-01T19:01:36.392Z,95817.81
2023-04-01T19:05:42.223Z,95813.06
2023-04-01T19:09:53.327Z,95808.56
2023-04-01T19:14:10.322Z,95818.38
2023-04-01T19:18:33.475Z,95827.97
2023-04-01T19:23:05.715Z,95827.41
2023-04-01T19:27:22.806Z,95838.31
2023-04-01T19:31:45.032Z,95836.50
2023-04-01T19:35:56.925Z,95831.66
2023-04-01T19:40:18.113Z,95846.03
2023-04-01T19:44:43.233Z,95834.09
2023-04-01T19:49:05.473Z,95836.25
2023-04-01T19:53:23.169Z,95849.75
2023-04-01T19:57:38.774Z,95855.13
2023-04-01T20:01:52.660Z,95847.91
2023-04-01T20:06:11.757Z,95860.41
2023-04-01T20:10:20.851Z,95833.06
2023-04-01T20:14:34.258Z,95868.59
2023-04-01T20:19:02.401Z,95873.41
2023-04-01T20:23:42.585Z,95836.72
2023-04-01T20:27:51.157Z,95874.41
2023-04-01T20:32:10.351Z,95876.84
2023-04-01T20:36:25.084Z,95875.09
2023-04-01T20:40:38.110Z,95870.91
2023-04-01T20:44:46.723Z,95882.59
2023-04-01T20:49:28.140Z,95886.94
2023-04-01T20:53:39.919Z,95891.22
2023-04-01T20:57:52.148Z,95893.31
2023-04-01T21:02:13.029Z,95891.69
2023-04-01T21:06:44.120Z,95894.88
2023-04-01T21:11:03.859Z,95890.59
2023-04-01T21:15:33.623Z,95901.03
2023-04-01T21:19:56.246Z,95902.38
2023-04-01T21:24:40.610Z,95906.34
2023-04-01T21:29:03.976Z,95911.13
2023-04-01T21:33:41.668Z,95913.78
2023-04-01T21:38:02.034Z,95896.00
2023-04-01T21:42:24.442Z,95916.72
2023-04-01T21:47:25.767Z,95927.38
2023-04-01T21:52:13.604Z,95933.75
2023-04-01T21:57:13.726Z,95937.47
2023-04-01T22:02:02.345Z,95938.56
2023-04-01T22:06:20.596Z,95936.44
2023-04-01T22:10:33.073Z,95943.31
2023-04-01T22:14:46.023Z,95918.63
2023-04-01T22:18:56.657Z,95939.56
2023-04-01T22:23:18.320Z,95947.31
2023-04-01T22:27:28.392Z,95950.25
2023-04-01T22:31:40.425Z,95953.97
2023-04-01T22:35:51.630Z,95958.19
2023-04-01T22:40:21.547Z,95958.75
2023-04-01T22:44:46.095Z,95961.41
2023-04-01T22:48:55.360Z,95955.00
2023-04-01T22:53:09.734Z,95968.06
2023-04-01T22:57:22.165Z,95969.38
2023-04-01T23:01:32.546Z,95973.34
2023-04-01T23:05:35.977Z,95979.47
2023-04-01T23:09:41.550Z,95977.09
2023-04-01T23:13:53.856Z,95992.50
2023-04-01T23:18:13.948Z,95989.06
2023-04-01T23:22:29.393Z,95996.50
2023-04-01T23:26:39.586Z,95992.53
2023-04-01T23:30:56.491Z,96001.81
2023-04-01T23:35:00.985Z,96016.69
2023-04-01T23:39:09.886Z,96018.81
2023-04-01T23:43:19.455Z,96023.06
2023-04-01T23:47:28.092Z,96027.84
2023-04-01T23:51:32.119Z,96033.72
2023-04-01T23:55:37.646Z,96028.66
2023-04-01T23:59:40.989Z,96035.31
